createdAt,value
2023-04-27T00:00:58.470Z,92.90
2023-04-27T00:03:25.608Z,93.30
2023-04-27T00:05:52.880Z,93.50
2023-04-27T00:08:20.333Z,93.60
2023-04-27T00:10:47.263Z,93.90
2023-04-27T00:13:15.153Z,93.90
2023-04-27T00:15:41.928Z,94.30
2023-04-27T00:18:10.180Z,94.50
2023-04-27T00:20:37.067Z,94.50
2023-04-27T00:23:03.927Z,94.90
2023-04-27T00:25:30.763Z,95.10
2023-04-27T00:27:57.570Z,95.00
2023-04-27T00:30:24.370Z,95.00
2023-04-27T00:32:51.177Z,95.10
2023-04-27T00:35:19.513Z,95.30
2023-04-27T00:37:46.502Z,95.30
2023-04-27T00:40:13.568Z,95.40
2023-04-27T00:42:40.334Z,95.50
2023-04-27T00:45:08.503Z,95.60
2023-04-27T00:47:35.315Z,95.70
2023-04-27T00:50:02.305Z,95.80
2023-04-27T00:52:31.338Z,95.90
2023-04-27T00:54:58.489Z,96.00
2023-04-27T00:57:25.323Z,96.10
2023-04-27T00:59:52.127Z,96.30
2023-04-27T01:02:19.178Z,96.30
2023-04-27T01:04:46.340Z,96.30
2023-04-27T01:07:13.184Z,96.30
2023-04-27T01:09:41.420Z,96.30
2023-04-27T01:12:08.325Z,96.40
2023-04-27T01:14:36.701Z,96.50
2023-04-27T01:17:03.641Z,96.50
2023-04-27T01:19:31.564Z,96.80
2023-04-27T01:21:58.415Z,96.90
2023-04-27T01:24:26.674Z,97.30
2023-04-27T01:26:53.493Z,97.40
2023-04-27T01:29:20.447Z,97.30
2023-04-27T01:31:47.750Z,97.40
2023-04-27T01:34:14.875Z,97.50
2023-04-27T01:36:42.235Z,97.70
2023-04-27T01:39:09.478Z,97.80
2023-04-27T01:41:38.391Z,97.90
2023-04-27T01:44:07.058Z,98.10
2023-04-27T01:46:34.319Z,98.20
2023-04-27T01:49:02.066Z,98.40
2023-04-27T01:51:29.481Z,98.60
2023-04-27T01:53:56.472Z,98.70
2023-04-27T01:56:23.636Z,99.00
2023-04-27T01:58:53.357Z,99.30
2023-04-27T02:01:20.735Z,99.50
2023-04-27T02:03:47.852Z,99.70
2023-04-27T02:06:14.720Z,99.90
2023-04-27T02:08:41.555Z,99.90
2023-04-27T02:11:08.655Z,99.90
2023-04-27T02:13:35.418Z,99.90
2023-04-27T02:16:03.685Z,99.90
2023-04-27T02:18:30.601Z,99.90
2023-04-27T02:20:57.360Z,99.90
2023-04-27T02:23:24.344Z,99.90
2023-04-27T02:25:51.134Z,99.90
2023-04-27T02:28:18.023Z,99.90
2023-04-27T02:30:45.262Z,99.90
2023-04-27T02:33:13.420Z,99.90
2023-04-27T02:35:40.435Z,99.90
2023-04-27T02:38:07.248Z,99.90
2023-04-27T02:40:34.169Z,99.90
2023-04-27T02:43:00.956Z,99.90
2023-04-27T02:45:27.700Z,99.90
2023-04-27T02:47:54.616Z,99.90
2023-04-27T02:50:22.907Z,99.90
2023-04-27T02:52:49.715Z,99.90
2023-04-27T02:55:17.813Z,99.90
2023-04-27T02:57:44.844Z,99.90
2023-04-27T03:00:12.833Z,99.90
2023-04-27T03:02:39.813Z,99.90
2023-04-27T03:05:07.543Z,99.90
2023-04-27T03:07:36.016Z,99.90
2023-04-27T03:10:02.920Z,99.90
2023-04-27T03:12:29.714Z,99.90
2023-04-27T03:14:56.454Z,99.90
2023-04-27T03:17:23.226Z,99.90
2023-04-27T03:19:50.089Z,99.90
2023-04-27T03:22:17.059Z,99.90
2023-04-27T03:24:45.369Z,99.90
2023-04-27T03:27:12.563Z,99.90
2023-04-27T03:29:39.473Z,99.90
2023-04-27T03:32:06.752Z,99.90
2023-04-27T03:34:33.682Z,99.90
2023-04-27T03:37:01.779Z,99.90
2023-04-27T03:39:28.578Z,99.90
2023-04-27T03:41:56.763Z,99.90
2023-04-27T03:44:23.588Z,99.90
2023-04-27T03:46:50.355Z,99.90
2023-04-27T03:49:17.165Z,99.90
2023-04-27T03:51:43.992Z,99.90
2023-04-27T03:54:10.855Z,99.90
2023-04-27T03:56:37.666Z,99.90
2023-04-27T03:59:05.999Z,99.90
2023-04-27T04:01:32.891Z,99.90
2023-04-27T04:03:59.853Z,99.90
2023-04-27T04:06:26.699Z,99.90
2023-04-27T04:08:53.661Z,99.90
2023-04-27T04:11:20.617Z,99.90
2023-04-27T04:13:47.454Z,99.90
2023-04-27T04:16:15.672Z,99.90
2023-04-27T04:18:42.639Z,99.90
2023-04-27T04:21:09.816Z,99.90
2023-04-27T04:23:36.603Z,99.90
2023-04-27T04:26:03.569Z,99.90
2023-04-27T04:28:30.400Z,99.90
2023-04-27T04:30:57.259Z,99.90
2023-04-27T04:33:25.530Z,99.90
2023-04-27T04:35:52.481Z,99.90
2023-04-27T04:38:19.277Z,99.90
2023-04-27T04:40:46.881Z,99.90
2023-04-27T04:43:14.222Z,99.90
2023-04-27T04:45:41.564Z,99.90
2023-04-27T04:48:09.376Z,99.90
2023-04-27T04:50:39.608Z,99.90
2023-04-27T04:53:10.343Z,99.90
2023-04-27T04:55:37.641Z,99.90
2023-04-27T04:58:04.719Z,99.90
2023-04-27T05:03:14.040Z,99.90
2023-04-27T05:05:58.905Z,99.90
2023-04-27T05:08:29.810Z,99.90
2023-04-27T05:13:37.924Z,99.90
2023-04-27T05:18:51.754Z,99.90
2023-04-27T05:21:20.855Z,99.90
2023-04-27T05:23:48.617Z,99.90
2023-04-27T05:26:17.215Z,99.90
2023-04-27T05:28:45.335Z,99.90
2023-04-27T05:31:12.670Z,99.90
2023-04-27T05:33:40.998Z,99.90
2023-04-27T05:36:18.497Z,99.90
2023-04-27T05:38:50.160Z,99.90
2023-04-27T05:43:59.231Z,99.90
2023-04-27T05:46:26.924Z,99.90
2023-04-27T05:48:54.532Z,99.90
2023-04-27T05:51:22.571Z,99.90
2023-04-27T05:53:53.241Z,99.90
2023-04-27T05:56:21.007Z,99.90
2023-04-27T05:58:48.167Z,99.90
2023-04-27T06:01:15.312Z,98.50
2023-04-27T06:03:42.521Z,98.00
2023-04-27T06:06:13.087Z,97.70
2023-04-27T06:08:40.419Z,97.20
2023-04-27T06:11:10.782Z,97.10
2023-04-27T06:13:38.034Z,96.90
2023-04-27T06:16:05.873Z,96.90
2023-04-27T06:18:33.609Z,96.70
2023-04-27T06:21:01.298Z,96.30
2023-04-27T06:23:29.081Z,96.10
2023-04-27T06:25:56.241Z,95.40
2023-04-27T06:28:26.093Z,94.80
2023-04-27T06:30:55.439Z,94.40
2023-04-27T06:33:22.820Z,93.20
2023-04-27T06:35:50.257Z,93.20
2023-04-27T06:38:18.131Z,92.90
2023-04-27T06:40:45.850Z,92.90
2023-04-27T06:43:13.908Z,92.00
2023-04-27T06:45:43.277Z,91.70
2023-04-27T06:48:10.602Z,91.30
2023-04-27T06:50:37.704Z,90.00
2023-04-27T06:53:05.013Z,90.00
2023-04-27T06:55:32.387Z,89.00
2023-04-27T06:57:59.450Z,88.50
2023-04-27T07:00:31.783Z,87.30
2023-04-27T07:03:02.700Z,86.40
2023-04-27T07:05:29.767Z,84.10
2023-04-27T07:07:56.941Z,82.00
2023-04-27T07:10:23.873Z,81.50
2023-04-27T07:12:51.732Z,82.00
2023-04-27T07:15:19.446Z,80.60
2023-04-27T07:17:46.626Z,80.20
2023-04-27T07:20:15.167Z,80.30
2023-04-27T07:22:42.194Z,79.60
2023-04-27T07:25:09.909Z,78.60
2023-04-27T07:27:36.831Z,77.90
2023-04-27T07:30:04.579Z,76.70
2023-04-27T07:32:33.023Z,76.30
2023-04-27T07:35:00.122Z,75.60
2023-04-27T07:37:28.983Z,74.40
2023-04-27T07:39:57.567Z,73.20
2023-04-27T07:42:24.604Z,71.60
2023-04-27T07:44:51.527Z,73.00
2023-04-27T07:47:18.659Z,72.80
2023-04-27T07:49:45.987Z,71.90
2023-04-27T07:52:13.157Z,70.70
2023-04-27T07:54:43.165Z,70.20
2023-04-27T07:57:12.524Z,70.10
2023-04-27T07:59:47.208Z,71.10
2023-04-27T08:02:19.713Z,69.00
2023-04-27T08:04:49.608Z,68.20
2023-04-27T08:07:17.909Z,67.60
2023-04-27T08:09:54.240Z,68.10
2023-04-27T08:12:21.178Z,67.70
2023-04-27T08:14:48.092Z,66.10
2023-04-27T08:17:15.165Z,66.00
2023-04-27T08:19:42.392Z,65.30
2023-04-27T08:22:09.470Z,62.70
2023-04-27T08:24:45.261Z,63.30
2023-04-27T08:27:18.100Z,63.30
2023-04-27T08:29:48.531Z,63.60
2023-04-27T08:32:16.296Z,63.70
2023-04-27T08:34:43.726Z,64.40
2023-04-27T08:37:12.422Z,63.90
2023-04-27T08:39:39.961Z,63.60
2023-04-27T08:42:15.381Z,63.00
2023-04-27T08:44:43.058Z,63.30
2023-04-27T08:47:10.724Z,62.20
2023-04-27T08:49:41.623Z,61.60
2023-04-27T08:52:13.053Z,61.70
2023-04-27T08:54:40.043Z,61.70
2023-04-27T08:57:11.349Z,61.20
2023-04-27T08:59:40.145Z,61.00
2023-04-27T09:02:07.415Z,61.50
2023-04-27T09:04:37.979Z,61.30
2023-04-27T09:07:12.587Z,60.80
2023-04-27T09:09:39.584Z,61.10
2023-04-27T09:12:15.950Z,61.70
2023-04-27T09:14:44.932Z,61.20
2023-04-27T09:20:04.619Z,61.00
2023-04-27T09:22:32.912Z,60.10
2023-04-27T09:25:00.969Z,59.90
2023-04-27T09:27:28.063Z,60.10
2023-04-27T09:30:00.205Z,60.50
2023-04-27T09:32:27.651Z,60.20
2023-04-27T09:35:02.177Z,60.30
2023-04-27T09:37:30.355Z,60.20
2023-04-27T09:39:57.534Z,59.60
2023-04-27T09:42:25.738Z,59.20
2023-04-27T09:44:54.402Z,58.40
2023-04-27T09:47:24.543Z,57.40
2023-04-27T09:49:52.659Z,57.20
2023-04-27T09:52:19.957Z,56.00
2023-04-27T09:54:47.777Z,54.80
2023-04-27T09:57:21.600Z,52.80
2023-04-27T10:00:08.956Z,53.10
2023-04-27T10:02:53.553Z,53.50
2023-04-27T10:05:50.582Z,53.80
2023-04-27T10:08:18.023Z,54.50
2023-04-27T10:10:48.067Z,53.70
2023-04-27T10:13:22.489Z,53.10
2023-04-27T10:15:50.556Z,52.20
2023-04-27T10:18:30.333Z,53.10
2023-04-27T10:21:09.370Z,53.50
2023-04-27T10:23:45.923Z,53.20
2023-04-27T10:28:58.214Z,53.60
2023-04-27T10:31:28.295Z,54.20
2023-04-27T10:34:07.992Z,53.10
2023-04-27T10:36:35.969Z,52.70
2023-04-27T10:39:03.650Z,52.30
2023-04-27T10:41:35.073Z,51.70
2023-04-27T10:44:14.636Z,51.80
2023-04-27T10:46:50.926Z,51.30
2023-04-27T10:49:20.940Z,51.10
2023-04-27T10:51:49.288Z,50.70
2023-04-27T10:54:18.341Z,50.20
2023-04-27T16:59:35.322Z,36.70
2023-04-27T17:02:12.958Z,36.30
2023-04-27T17:04:48.911Z,37.10
2023-04-27T17:07:15.729Z,38.70
2023-04-27T17:09:42.614Z,40.20
2023-04-27T17:12:09.413Z,41.80
2023-04-27T17:14:37.672Z,43.80
2023-04-27T17:17:07.540Z,45.00
2023-04-27T17:19:34.355Z,46.00
2023-04-27T17:22:01.108Z,46.70
2023-04-27T17:24:27.914Z,47.60
2023-04-27T17:26:54.802Z,47.10
2023-04-27T17:29:21.708Z,47.40
2023-04-27T17:31:49.916Z,46.10
2023-04-27T17:34:16.916Z,44.10
2023-04-27T17:36:43.693Z,42.70
2023-04-27T17:39:10.441Z,42.70
2023-04-27T17:41:37.373Z,43.50
2023-04-27T17:44:04.228Z,44.20
2023-04-27T17:46:31.125Z,44.50
2023-04-27T17:48:59.239Z,44.30
2023-04-27T17:51:26.024Z,44.40
2023-04-27T17:53:52.862Z,44.60
2023-04-27T17:56:19.635Z,44.70
2023-04-27T17:58:46.378Z,45.30
2023-04-27T18:01:13.293Z,45.70
2023-04-27T18:03:40.297Z,46.30
2023-04-27T18:06:08.827Z,47.00
2023-04-27T18:08:35.652Z,48.00
2023-04-27T18:11:02.608Z,49.10
2023-04-27T18:13:29.410Z,50.70
2023-04-27T18:15:56.183Z,51.70
2023-04-27T18:18:25.285Z,52.90
2023-04-27T18:20:52.372Z,54.00
2023-04-27T18:23:20.775Z,55.90
2023-04-27T18:25:47.766Z,56.50
2023-04-27T18:28:14.780Z,57.50
2023-04-27T18:30:41.632Z,58.90
2023-04-27T18:33:08.552Z,59.40
2023-04-27T18:35:35.638Z,60.50
2023-04-27T18:38:02.399Z,60.80
2023-04-27T18:40:31.286Z,62.20
2023-04-27T18:42:58.026Z,62.80
2023-04-27T18:45:24.852Z,63.70
2023-04-27T18:47:51.798Z,64.50
2023-04-27T18:50:18.677Z,65.80
2023-04-27T18:52:45.521Z,66.40
2023-04-27T18:55:12.971Z,67.20
2023-04-27T18:57:41.137Z,67.80
2023-04-27T19:00:09.120Z,68.90
2023-04-27T19:02:36.422Z,69.50
2023-04-27T19:07:34.410Z,72.10
2023-04-27T19:10:01.293Z,72.40
2023-04-27T19:12:28.147Z,72.50
2023-04-27T19:14:56.286Z,74.00
2023-04-27T19:17:23.233Z,73.80
2023-04-27T19:19:50.042Z,74.30
2023-04-27T19:22:16.865Z,75.60
2023-04-27T19:24:43.635Z,95.20
2023-04-27T19:27:10.387Z,84.10
2023-04-27T19:29:49.971Z,82.50
2023-04-27T19:32:18.624Z,77.20
2023-04-27T19:34:45.629Z,77.90
2023-04-27T19:37:12.590Z,78.00
2023-04-27T19:39:39.418Z,78.90
2023-04-27T19:42:06.340Z,79.20
2023-04-27T19:44:33.265Z,80.10
2023-04-27T19:47:00.068Z,79.90
2023-04-27T19:49:30.884Z,80.00
2023-04-27T19:51:57.633Z,80.30
2023-04-27T19:54:24.388Z,81.90
2023-04-27T19:56:51.400Z,82.00
2023-04-27T19:59:18.498Z,82.80
2023-04-27T20:01:45.413Z,82.70
2023-04-27T20:04:13.028Z,83.10
2023-04-27T20:06:41.538Z,84.10
2023-04-27T20:09:08.328Z,84.80
2023-04-27T20:11:35.097Z,85.20
2023-04-27T20:14:01.976Z,86.40
2023-04-27T20:16:28.775Z,86.20
2023-04-27T20:18:57.275Z,86.80
2023-04-27T20:21:24.326Z,87.10
2023-04-27T20:23:52.626Z,88.40
2023-04-27T20:26:19.449Z,88.60
2023-04-27T20:28:46.200Z,89.60
2023-04-27T20:31:12.977Z,90.30
2023-04-27T20:33:39.738Z,90.50
2023-04-27T20:36:16.704Z,90.60
2023-04-27T20:38:44.833Z,91.10
2023-04-27T20:41:13.054Z,91.40
2023-04-27T20:43:39.999Z,91.80
2023-04-27T20:46:07.329Z,92.20
2023-04-27T20:48:34.467Z,92.50
2023-04-27T20:51:01.241Z,93.10
2023-04-27T20:53:28.309Z,93.40
2023-04-27T20:55:55.100Z,94.10
2023-04-27T20:58:23.380Z,94.20
2023-04-27T21:00:50.188Z,94.60
2023-04-27T21:03:20.180Z,95.00
2023-04-27T21:05:47.613Z,95.00
2023-04-27T21:08:14.525Z,95.50
2023-04-27T21:10:41.539Z,96.10
2023-04-27T21:13:08.356Z,96.50
2023-04-27T21:15:40.741Z,97.00
2023-04-27T21:18:13.456Z,97.50
2023-04-27T21:20:43.032Z,97.80
2023-04-27T21:23:09.842Z,98.40
2023-04-27T21:25:36.671Z,98.80
2023-04-27T21:28:03.643Z,98.90
2023-04-27T21:30:30.399Z,99.30
2023-04-27T21:32:59.880Z,99.70
2023-04-27T21:35:27.071Z,99.90
2023-04-27T21:37:54.182Z,99.90
2023-04-27T21:40:21.054Z,99.90
2023-04-27T21:42:50.331Z,99.90
2023-04-27T21:45:17.516Z,99.90
2023-04-27T21:47:44.803Z,99.90
2023-04-27T21:50:14.268Z,99.90
2023-04-27T21:52:41.017Z,99.90
2023-04-27T21:55:08.051Z,99.90
2023-04-27T21:57:35.140Z,99.90
2023-04-27T22:00:02.111Z,99.90
2023-04-27T22:02:29.200Z,99.90
2023-04-27T22:04:56.701Z,99.90
2023-04-27T22:07:24.980Z,99.90
2023-04-27T22:09:51.719Z,99.90
2023-04-27T22:12:18.481Z,99.90
2023-04-27T22:14:45.237Z,99.90
2023-04-27T22:17:13.167Z,99.90
2023-04-27T22:19:39.970Z,99.90
2023-04-27T22:22:06.794Z,99.90
2023-04-27T22:24:36.001Z,99.90
2023-04-27T22:27:02.874Z,99.90
2023-04-27T22:29:29.748Z,99.90
2023-04-27T22:31:59.761Z,99.90
2023-04-27T22:34:26.563Z,99.90
2023-04-27T22:36:53.796Z,99.90
2023-04-27T22:39:20.945Z,99.90
2023-04-27T22:41:49.033Z,99.90
2023-04-27T22:44:16.051Z,99.90
2023-04-27T22:46:43.117Z,99.90
2023-04-27T22:49:09.920Z,99.90
2023-04-27T22:51:36.633Z,99.90
2023-04-27T22:54:03.575Z,99.90
2023-04-27T22:56:30.349Z,99.90
2023-04-27T22:58:58.712Z,99.90
2023-04-27T23:01:25.782Z,99.90
2023-04-27T23:03:55.610Z,99.90
2023-04-27T23:06:22.612Z,99.90
2023-04-27T23:08:49.409Z,99.90
2023-04-27T23:11:16.571Z,99.90
2023-04-27T23:13:43.463Z,99.90
2023-04-27T23:16:11.937Z,99.90
2023-04-27T23:18:38.956Z,99.90
2023-04-27T23:21:05.985Z,99.90
2023-04-27T23:23:32.890Z,99.90
2023-04-27T23:25:59.771Z,99.90
2023-04-27T23:28:26.763Z,99.90
2023-04-27T23:30:54.019Z,99.90
2023-04-27T23:33:22.545Z,99.90
2023-04-27T23:35:49.400Z,99.90
2023-04-27T23:38:16.448Z,99.90
2023-04-27T23:40:43.436Z,99.90
2023-04-27T23:43:10.399Z,99.90
2023-04-27T23:45:37.565Z,99.90
2023-04-27T23:48:05.098Z,99.90
2023-04-27T23:50:33.539Z,99.90
2023-04-27T23:53:00.371Z,99.90
2023-04-27T23:55:27.332Z,99.90
2023-04-27T23:57:55.303Z,99.90
